Time;durP1;ratioP1;P1;durP2;ratioP2;P2;SDS_P1;SDS_P2;PMS_P1;PMS_P2;Temp;Humidity;BMP_temperature;BMP_pressure;BME280_temperature;BME280_humidity;BME280_pressure;Samples;Min_cycle;Max_cycle;Signal;HPM_P1;HPM_P2
2023/03/21 00:00:34;;;;;;;9.77;5.45;;;;;;;-144.57;100.00;62443.72;4751146;30;20059;-61
2023/03/21 00:03:00;;;;;;;10.52;5.60;;;;;;;-144.57;100.00;62443.72;4749701;30;20060;-62
2023/03/21 00:05:26;;;;;;;8.63;4.93;;;;;;;-144.57;100.00;62443.72;4751004;30;20117;-63
2023/03/21 00:07:52;;;;;;;10.40;5.35;;;;;;;-144.57;100.00;62443.72;4751588;30;20056;-61
2023/03/21 00:10:17;;;;;;;10.40;5.80;;;;;;;-144.57;100.00;62443.72;4749673;30;20084;-63
2023/03/21 00:12:43;;;;;;;10.82;5.75;;;;;;;-144.57;100.00;62443.72;4751359;30;20088;-61
2023/03/21 00:15:11;;;;;;;17.63;6.03;;;;;;;-144.57;100.00;62443.72;4750866;30;20063;-60
2023/03/21 00:17:38;;;;;;;10.48;5.85;;;;;;;-144.57;100.00;62443.72;4764570;30;20403;-62
2023/03/21 00:20:06;;;;;;;11.82;5.60;;;;;;;-144.57;100.00;62443.72;4750662;30;20083;-61
2023/03/21 00:22:36;;;;;;;12.18;6.25;;;;;;;-144.57;100.00;62443.72;4751279;30;20091;-61
2023/03/21 00:25:01;;;;;;;8.80;5.55;;;;;;;-144.57;100.00;62443.72;4750738;30;20611;-60
2023/03/21 00:27:27;;;;;;;12.52;6.55;;;;;;;-144.57;100.00;62443.72;4751262;30;20064;-61
2023/03/21 00:29:54;;;;;;;10.85;6.20;;;;;;;-144.57;100.00;62443.72;4749688;30;20060;-61
2023/03/21 00:32:20;;;;;;;9.18;5.63;;;;;;;-144.57;100.00;62443.72;4764516;30;20145;-61
2023/03/21 00:34:47;;;;;;;9.80;5.43;;;;;;;-144.57;100.00;62443.72;4764265;30;20052;-61
2023/03/21 00:37:17;;;;;;;8.50;5.10;;;;;;;-144.57;100.00;62443.72;4764503;30;20067;-61
2023/03/21 00:39:47;;;;;;;10.68;6.00;;;;;;;-144.57;100.00;62443.72;4764041;30;20151;-62
2023/03/21 00:42:16;;;;;;;11.20;5.75;;;;;;;-144.57;100.00;62443.72;4752066;30;20075;-61
2023/03/21 00:44:43;;;;;;;13.23;5.35;;;;;;;-144.57;100.00;62443.72;4754254;30;20475;-62
2023/03/21 00:47:12;;;;;;;8.70;5.68;;;;;;;-144.57;100.00;62443.72;4754709;30;20064;-62
2023/03/21 00:49:38;;;;;;;8.82;4.93;;;;;;;-144.57;100.00;62443.72;4749898;30;20250;-61
2023/03/21 00:52:06;;;;;;;8.55;5.65;;;;;;;-144.57;100.00;62443.72;4750222;30;20423;-61
2023/03/21 00:54:32;;;;;;;9.52;5.68;;;;;;;-144.57;100.00;62443.72;4750069;30;20060;-61
2023/03/21 00:56:58;;;;;;;10.30;5.43;;;;;;;-144.57;100.00;62443.72;4749144;30;20202;-63
2023/03/21 00:59:24;;;;;;;11.07;6.07;;;;;;;-144.57;100.00;62443.72;4736603;30;20147;-61
2023/03/21 01:01:52;;;;;;;12.50;5.65;;;;;;;-144.57;100.00;62443.72;4749141;30;20057;-60
2023/03/21 01:04:18;;;;;;;12.52;5.45;;;;;;;-144.57;100.00;62443.72;4736598;30;20056;-61
2023/03/21 01:06:44;;;;;;;9.93;5.47;;;;;;;-144.57;100.00;62443.72;4736646;30;20052;-61
2023/03/21 01:09:15;;;;;;;9.07;5.65;;;;;;;-144.57;100.00;62443.72;4749673;30;20423;-62
2023/03/21 01:11:41;;;;;;;10.00;5.05;;;;;;;-144.57;100.00;62443.72;4750076;30;20059;-62
2023/03/21 01:14:07;;;;;;;11.73;6.55;;;;;;;-144.57;100.00;62443.72;4749593;30;20056;-61
2023/03/21 01:16:32;;;;;;;13.35;5.55;;;;;;;-144.57;100.00;62443.72;4749792;30;20151;-61
2023/03/21 01:18:58;;;;;;;10.57;5.45;;;;;;;-144.57;100.00;62443.72;4735805;30;20068;-61
2023/03/21 01:21:24;;;;;;;10.07;4.78;;;;;;;-144.57;100.00;62443.72;4749825;30;20064;-60
2023/03/21 01:23:50;;;;;;;13.98;5.15;;;;;;;-144.57;100.00;62443.72;4749563;30;20064;-60
2023/03/21 01:26:15;;;;;;;11.85;5.90;;;;;;;-144.57;100.00;62443.72;4736118;30;20473;-60
2023/03/21 01:28:43;;;;;;;10.95;5.32;;;;;;;-144.57;100.00;62443.72;4749397;30;20078;-61
2023/03/21 01:31:11;;;;;;;10.45;5.40;;;;;;;-144.57;100.00;62443.72;4735917;30;20127;-61
2023/03/21 01:33:36;;;;;;;9.00;4.85;;;;;;;-144.57;100.00;62443.72;4735851;30;20449;-61
2023/03/21 01:36:03;;;;;;;10.27;5.18;;;;;;;-144.57;100.00;62443.72;4749281;30;20155;-61
2023/03/21 01:38:28;;;;;;;9.52;5.28;;;;;;;-144.57;100.00;62443.72;4749189;30;20159;-61
2023/03/21 01:40:54;;;;;;;10.10;5.10;;;;;;;-144.57;100.00;62443.72;4749479;30;20135;-61
2023/03/21 01:43:33;;;;;;;12.60;5.55;;;;;;;-144.57;100.00;62443.72;4766947;30;20103;-62
2023/03/21 01:46:20;;;;;;;9.73;5.78;;;;;;;-144.57;100.00;62443.72;4752173;30;20451;-61
2023/03/21 01:49:20;;;;;;;9.48;5.25;;;;;;;-144.57;100.00;62443.72;4749202;30;20139;-61
2023/03/21 01:52:00;;;;;;;9.38;5.13;;;;;;;-144.57;100.00;62443.72;4748328;30;20061;-61
2023/03/21 01:54:31;;;;;;;10.35;5.10;;;;;;;-144.57;100.00;62443.72;4749066;30;20071;-62
2023/03/21 01:56:58;;;;;;;11.25;5.00;;;;;;;-144.57;100.00;62443.72;4748828;30;20401;-61
2023/03/21 01:59:27;;;;;;;8.02;5.30;;;;;;;-144.57;100.00;62443.72;4748883;30;20060;-61
2023/03/21 02:02:12;;;;;;;10.43;5.35;;;;;;;-144.57;100.00;62443.72;4735710;30;20126;-61
2023/03/21 02:04:54;;;;;;;17.05;5.60;;;;;;;-144.57;100.00;62443.72;4747187;30;20141;-61
2023/03/21 02:07:28;;;;;;;10.07;5.30;;;;;;;-144.57;100.00;62443.72;4749088;30;20075;-61
2023/03/21 02:10:11;;;;;;;8.40;5.40;;;;;;;-144.57;100.00;62443.72;4748659;30;20095;-61
2023/03/21 02:12:40;;;;;;;13.70;5.88;;;;;;;-144.57;100.00;62443.72;4733725;30;20154;-62
2023/03/21 02:15:08;;;;;;;11.27;5.45;;;;;;;-144.57;100.00;62443.72;4733685;30;20464;-61
2023/03/21 02:18:08;;;;;;;9.02;5.13;;;;;;;-144.57;100.00;62443.72;4735732;30;20161;-60
2023/03/21 02:20:49;;;;;;;9.40;5.47;;;;;;;-144.57;100.00;62443.72;4746769;30;20536;-60
2023/03/21 02:24:06;;;;;;;10.13;5.57;;;;;;;-144.57;100.00;62443.72;4748407;30;20127;-59
2023/03/21 02:26:31;;;;;;;9.90;5.28;;;;;;;-144.57;100.00;62443.72;4732924;30;20068;-62
2023/03/21 02:29:11;;;;;;;9.60;4.90;;;;;;;-144.57;100.00;62443.72;4748336;30;20151;-61
2023/03/21 02:31:46;;;;;;;14.35;5.45;;;;;;;-144.57;100.00;62443.72;4748444;30;20574;-61
2023/03/21 02:34:23;;;;;;;9.10;5.00;;;;;;;-144.57;100.00;62443.72;4748297;30;20057;-61
2023/03/21 02:37:11;;;;;;;9.85;4.80;;;;;;;-144.57;100.00;62443.72;4748445;30;20651;-61
2023/03/21 02:39:58;;;;;;;8.75;4.80;;;;;;;-144.57;100.00;62443.72;4771850;30;20102;-61
2023/03/21 02:42:49;;;;;;;11.65;5.20;;;;;;;-144.57;100.00;62443.72;4761982;30;20063;-61
2023/03/21 02:45:18;;;;;;;10.00;4.85;;;;;;;-144.57;100.00;62443.72;4768129;30;20060;-60
2023/03/21 02:47:58;;;;;;;11.35;5.10;;;;;;;-144.57;100.00;62443.72;4766247;30;20099;-61
2023/03/21 02:50:36;;;;;;;8.93;5.38;;;;;;;-144.57;100.00;62443.72;4751082;30;20418;-61
2023/03/21 02:57:05;;;;;;;9.88;5.43;;;;;;;-144.57;100.00;62443.72;4752340;30;20059;-61
2023/03/21 02:59:31;;;;;;;10.10;5.30;;;;;;;-144.57;100.00;62443.72;4765593;30;20427;-60
2023/03/21 03:02:01;;;;;;;10.70;5.50;;;;;;;-144.57;100.00;62443.72;4765622;30;20071;-61
2023/03/21 03:04:27;;;;;;;11.20;5.65;;;;;;;-144.57;100.00;62443.72;4734553;30;20050;-60
2023/03/21 03:07:12;;;;;;;11.98;5.55;;;;;;;-144.57;100.00;62443.72;4765567;30;20526;-61
2023/03/21 03:10:17;;;;;;;10.63;5.28;;;;;;;-144.57;100.00;62443.72;4739426;30;20056;-61
2023/03/21 03:12:53;;;;;;;8.95;4.85;;;;;;;-144.57;100.00;62443.72;4748690;30;20060;-61
2023/03/21 03:15:27;;;;;;;10.07;5.13;;;;;;;-144.57;100.00;62443.72;4765414;30;20540;-61
2023/03/21 03:18:06;;;;;;;7.25;4.88;;;;;;;-144.57;100.00;62443.72;4765518;30;20076;-62
2023/03/21 03:20:47;;;;;;;11.52;5.00;;;;;;;-144.57;100.00;62443.72;4765216;30;20048;-62
2023/03/21 03:23:18;;;;;;;14.07;5.88;;;;;;;-144.57;100.00;62443.72;4751742;30;20130;-62
2023/03/21 03:25:49;;;;;;;10.70;5.18;;;;;;;-144.57;100.00;62443.72;4751497;30;20063;-60
2023/03/21 03:28:22;;;;;;;14.50;5.85;;;;;;;-144.57;100.00;62443.72;4751632;30;20063;-61
2023/03/21 03:30:48;;;;;;;11.40;6.00;;;;;;;-144.57;100.00;62443.72;4735592;30;20055;-61
2023/03/21 03:33:16;;;;;;;9.23;5.60;;;;;;;-144.57;100.00;62443.72;4750223;30;20064;-61
2023/03/21 03:35:43;;;;;;;12.32;5.68;;;;;;;-144.57;100.00;62443.72;4750129;30;20101;-62
2023/03/21 03:38:10;;;;;;;12.13;5.85;;;;;;;-144.57;100.00;62443.72;4746992;30;20563;-62
2023/03/21 03:40:42;;;;;;;10.95;5.13;;;;;;;-144.57;100.00;62443.72;4747189;30;20515;-62
2023/03/21 03:43:46;;;;;;;9.73;5.00;;;;;;;-144.57;100.00;62443.72;4732426;30;20071;-61
2023/03/21 03:46:27;;;;;;;11.90;5.60;;;;;;;-144.57;100.00;62443.72;4746562;30;20420;-62
2023/03/21 03:49:03;;;;;;;12.82;5.68;;;;;;;-144.57;100.00;62443.72;4718773;30;20103;-62
2023/03/21 03:52:11;;;;;;;8.40;5.00;;;;;;;-144.57;100.00;62443.72;4764589;30;20112;-62
2023/03/21 03:54:44;;;;;;;7.63;4.70;;;;;;;-144.57;100.00;62443.72;4750592;30;20063;-61
2023/03/21 03:57:12;;;;;;;13.60;5.95;;;;;;;-144.57;100.00;62443.72;4749846;30;20060;-61
2023/03/21 03:59:40;;;;;;;10.95;5.00;;;;;;;-144.57;100.00;62443.72;4764645;30;20084;-62
2023/03/21 04:02:26;;;;;;;10.90;4.65;;;;;;;-144.57;100.00;62443.72;4756065;30;20151;-61
2023/03/21 04:04:56;;;;;;;8.05;5.25;;;;;;;-144.57;100.00;62443.72;4758014;30;20460;-62
2023/03/21 04:07:22;;;;;;;9.35;5.22;;;;;;;-144.57;100.00;62443.72;4733638;30;20087;-61
2023/03/21 04:09:52;;;;;;;10.30;5.43;;;;;;;-144.57;100.00;62443.72;4746536;30;20590;-61
2023/03/21 04:12:19;;;;;;;8.55;4.90;;;;;;;-144.57;100.00;62443.72;4746442;30;20071;-61
2023/03/21 04:15:11;;;;;;;10.45;5.60;;;;;;;-144.57;100.00;62443.72;4731742;30;20427;-60
2023/03/21 04:17:40;;;;;;;9.37;5.67;;;;;;;-144.57;100.00;62443.72;4746828;30;20065;-61
2023/03/21 04:20:08;;;;;;;10.05;5.55;;;;;;;-144.57;100.00;62443.72;4746396;30;20095;-61
2023/03/21 04:22:34;;;;;;;10.30;5.38;;;;;;;-144.57;100.00;62443.72;4732145;30;20361;-62
2023/03/21 04:25:04;;;;;;;13.93;5.93;;;;;;;-144.57;100.00;62443.72;4746736;30;20427;-61
2023/03/21 04:27:32;;;;;;;11.73;5.63;;;;;;;-144.57;100.00;62443.72;4746705;30;20550;-62
2023/03/21 04:30:18;;;;;;;10.43;5.45;;;;;;;-144.57;100.00;62443.72;4733016;30;20079;-60
2023/03/21 04:33:01;;;;;;;9.50;4.97;;;;;;;-144.57;100.00;62443.72;4746693;30;20068;-62
2023/03/21 04:35:30;;;;;;;10.52;5.60;;;;;;;-144.57;100.00;62443.72;4746525;30;20061;-61
2023/03/21 04:37:56;;;;;;;13.00;5.50;;;;;;;-144.57;100.00;62443.72;4746486;30;20573;-61
2023/03/21 04:40:24;;;;;;;8.27;5.38;;;;;;;-144.57;100.00;62443.72;4763012;30;20198;-60
2023/03/21 04:42:49;;;;;;;11.75;6.15;;;;;;;-144.57;100.00;62443.72;4750958;30;20060;-62
2023/03/21 04:45:15;;;;;;;10.55;5.65;;;;;;;-144.57;100.00;62443.72;4749094;30;20056;-64
2023/03/21 04:47:43;;;;;;;10.25;5.13;;;;;;;-144.57;100.00;62443.72;4749315;30;20430;-62
2023/03/21 04:50:11;;;;;;;12.70;5.45;;;;;;;-144.57;100.00;62443.72;4750309;30;20056;-63
2023/03/21 04:52:38;;;;;;;11.88;5.82;;;;;;;-144.57;100.00;62443.72;4763998;30;20148;-60
2023/03/21 04:55:08;;;;;;;15.18;5.90;;;;;;;-144.57;100.00;62443.72;4755181;30;20090;-60
2023/03/21 04:57:36;;;;;;;10.85;5.50;;;;;;;-144.57;100.00;62443.72;4750300;30;20126;-61
2023/03/21 05:00:08;;;;;;;12.70;5.50;;;;;;;-144.57;100.00;62443.72;4750564;30;20064;-62
2023/03/21 05:02:34;;;;;;;12.27;5.20;;;;;;;-144.57;100.00;62443.72;4764030;30;20138;-61
2023/03/21 05:05:00;;;;;;;9.85;5.30;;;;;;;-144.57;100.00;62443.72;4749463;30;20103;-65
2023/03/21 05:07:25;;;;;;;9.38;5.53;;;;;;;-144.57;100.00;62443.72;4750422;30;20055;-68
2023/03/21 05:09:52;;;;;;;9.98;6.03;;;;;;;-144.57;100.00;62443.72;4749299;30;20506;-65
2023/03/21 05:12:18;;;;;;;11.52;5.63;;;;;;;-144.57;100.00;62443.72;4763573;30;20056;-63
2023/03/21 05:14:44;;;;;;;8.63;5.43;;;;;;;-144.57;100.00;62443.72;4748477;30;20071;-63
2023/03/21 05:17:14;;;;;;;13.40;6.20;;;;;;;-144.57;100.00;62443.72;4748930;30;20514;-62
2023/03/21 05:19:40;;;;;;;8.45;5.28;;;;;;;-144.57;100.00;62443.72;4719626;30;20141;-62
2023/03/21 05:22:08;;;;;;;11.20;5.40;;;;;;;-144.57;100.00;62443.72;4748974;30;20514;-63
2023/03/21 05:24:36;;;;;;;12.07;6.20;;;;;;;-144.57;100.00;62443.72;4749120;30;20060;-62
2023/03/21 05:27:02;;;;;;;10.07;6.13;;;;;;;-144.57;100.00;62443.72;4750978;30;20067;-62
2023/03/21 05:29:32;;;;;;;10.77;5.60;;;;;;;-144.57;100.00;62443.72;4754157;30;20098;-63
2023/03/21 05:32:04;;;;;;;11.48;5.85;;;;;;;-144.57;100.00;62443.72;4767034;30;20056;-63
2023/03/21 05:34:30;;;;;;;10.82;5.82;;;;;;;-144.57;100.00;62443.72;4752873;30;20056;-62
2023/03/21 05:36:58;;;;;;;9.60;5.88;;;;;;;-144.57;100.00;62443.72;4751764;30;20051;-63
2023/03/21 05:39:32;;;;;;;7.82;5.35;;;;;;;-144.57;100.00;62443.72;4766975;30;20082;-63
2023/03/21 05:42:07;;;;;;;11.20;5.47;;;;;;;-144.57;100.00;62443.72;4766539;30;20075;-62
2023/03/21 05:44:33;;;;;;;10.57;5.68;;;;;;;-144.57;100.00;62443.72;4753621;30;20066;-62
2023/03/21 05:47:03;;;;;;;12.52;5.22;;;;;;;-144.57;100.00;62443.72;4763885;30;20064;-61
2023/03/21 05:49:36;;;;;;;14.00;6.38;;;;;;;-144.57;100.00;62443.72;4765956;30;20495;-61
2023/03/21 05:52:03;;;;;;;10.15;5.80;;;;;;;-144.57;100.00;62443.72;4764970;30;20067;-62
2023/03/21 05:54:29;;;;;;;9.77;5.45;;;;;;;-144.57;100.00;62443.72;4765492;30;20142;-61
2023/03/21 05:56:55;;;;;;;10.70;5.93;;;;;;;-144.57;100.00;62443.72;4765867;30;20187;-62
2023/03/21 05:59:41;;;;;;;10.95;6.20;;;;;;;-144.57;100.00;62443.72;4751188;30;20068;-61
2023/03/21 06:02:07;;;;;;;11.63;5.45;;;;;;;-144.57;100.00;62443.72;4765952;30;20524;-60
2023/03/21 06:04:32;;;;;;;7.95;5.30;;;;;;;-144.57;100.00;62443.72;4765240;30;20467;-62
2023/03/21 06:06:58;;;;;;;10.40;5.35;;;;;;;-144.57;100.00;62443.72;4765196;30;20056;-63
2023/03/21 06:09:25;;;;;;;11.13;6.78;;;;;;;-144.57;100.00;62443.72;4750014;30;20075;-62
2023/03/21 06:11:56;;;;;;;10.75;5.80;;;;;;;-144.57;100.00;62443.72;4748839;30;20514;-60
2023/03/21 06:14:37;;;;;;;11.23;5.78;;;;;;;-144.57;100.00;62443.72;4765058;30;20068;-62
2023/03/21 06:17:17;;;;;;;13.32;5.70;;;;;;;-144.57;100.00;62443.72;4765706;30;20056;-62
2023/03/21 06:19:52;;;;;;;11.18;6.03;;;;;;;-144.57;100.00;62443.72;4749237;30;20075;-61
2023/03/21 06:22:30;;;;;;;9.27;5.60;;;;;;;-144.57;100.00;62443.72;4747554;30;20052;-62
2023/03/21 06:24:55;;;;;;;10.10;6.18;;;;;;;-144.57;100.00;62443.72;4764066;30;20187;-62
2023/03/21 06:27:21;;;;;;;9.18;5.68;;;;;;;-144.57;100.00;62443.72;4736004;30;20545;-64
2023/03/21 06:29:51;;;;;;;12.10;5.60;;;;;;;-144.57;100.00;62443.72;4764413;30;20532;-62
2023/03/21 06:32:18;;;;;;;13.32;6.03;;;;;;;-144.57;100.00;62443.72;4765626;30;20067;-61
2023/03/21 06:34:44;;;;;;;11.25;6.07;;;;;;;-144.57;100.00;62443.72;4750727;30;20060;-62
2023/03/21 06:37:13;;;;;;;11.73;6.47;;;;;;;-144.57;100.00;62443.72;4750497;30;20231;-62
2023/03/21 06:39:40;;;;;;;9.32;6.10;;;;;;;-144.57;100.00;62443.72;4748808;30;20060;-62
2023/03/21 06:42:07;;;;;;;11.27;5.88;;;;;;;-144.57;100.00;62443.72;4765830;30;20540;-64
2023/03/21 06:44:33;;;;;;;11.32;6.25;;;;;;;-144.57;100.00;62443.72;4764771;30;20085;-61
2023/03/21 06:47:04;;;;;;;9.20;6.03;;;;;;;-144.57;100.00;62443.72;4751576;30;20060;-62
2023/03/21 06:49:30;;;;;;;8.25;5.78;;;;;;;-144.57;100.00;62443.72;4764556;30;20071;-62
2023/03/21 06:52:00;;;;;;;11.83;6.07;;;;;;;-144.57;100.00;62443.72;4762824;30;20060;-63
2023/03/21 06:54:26;;;;;;;8.88;5.82;;;;;;;-144.57;100.00;62443.72;4763747;30;20064;-62
2023/03/21 06:56:58;;;;;;;11.38;6.18;;;;;;;-144.57;100.00;62443.72;4749485;30;20536;-61
2023/03/21 06:59:33;;;;;;;9.02;5.95;;;;;;;-144.57;100.00;62443.72;4764510;30;20072;-61
2023/03/21 07:02:10;;;;;;;9.63;5.88;;;;;;;-144.57;100.00;62443.72;4765245;30;20527;-61
2023/03/21 07:04:40;;;;;;;10.93;6.28;;;;;;;-144.57;100.00;62443.72;4751081;30;20067;-62
2023/03/21 07:07:11;;;;;;;10.27;6.90;;;;;;;-144.57;100.00;62443.72;4749350;30;20067;-62
2023/03/21 07:09:37;;;;;;;10.00;5.75;;;;;;;-144.57;100.00;62443.72;4749813;30;20068;-62
2023/03/21 07:12:05;;;;;;;8.32;5.82;;;;;;;-144.57;100.00;62443.72;4764584;30;20151;-61
2023/03/21 07:14:51;;;;;;;9.50;6.20;;;;;;;-144.57;100.00;62443.72;4750601;30;20155;-61
2023/03/21 07:17:16;;;;;;;11.60;5.60;;;;;;;-144.57;100.00;62443.72;4749956;30;20143;-62
2023/03/21 07:19:42;;;;;;;11.75;6.13;;;;;;;-144.57;100.00;62443.72;4750397;30;20232;-62
2023/03/21 07:22:07;;;;;;;8.35;5.18;;;;;;;-144.57;100.00;62443.72;4733741;30;20519;-62
2023/03/21 07:24:33;;;;;;;8.20;5.82;;;;;;;-144.57;100.00;62443.72;4733936;30;20067;-62
2023/03/21 07:26:59;;;;;;;8.43;5.88;;;;;;;-144.57;100.00;62443.72;4762890;30;20060;-63
2023/03/21 07:29:25;;;;;;;13.23;7.30;;;;;;;-144.57;100.00;62443.72;4763618;30;20064;-61
2023/03/21 07:31:51;;;;;;;9.07;5.93;;;;;;;-144.57;100.00;62443.72;4760651;30;20153;-62
2023/03/21 07:34:17;;;;;;;7.45;5.45;;;;;;;-144.57;100.00;62443.72;4749568;30;20095;-61
2023/03/21 07:36:44;;;;;;;7.65;5.30;;;;;;;-144.57;100.00;62443.72;4761901;30;20086;-63
2023/03/21 07:39:11;;;;;;;9.73;5.18;;;;;;;-144.57;100.00;62443.72;4749550;30;20517;-62
2023/03/21 07:41:37;;;;;;;6.57;4.43;;;;;;;-144.57;100.00;62443.72;4748135;30;20048;-63
2023/03/21 07:44:21;;;;;;;11.43;5.38;;;;;;;-144.57;100.00;62443.72;4748400;30;20170;-62
2023/03/21 07:46:52;;;;;;;8.50;5.25;;;;;;;-144.57;100.00;62443.72;4764170;30;20055;-61
2023/03/21 07:49:18;;;;;;;14.05;5.00;;;;;;;-144.57;100.00;62443.72;4750612;30;20155;-61
2023/03/21 07:51:44;;;;;;;10.77;5.50;;;;;;;-144.57;100.00;62443.72;4763529;30;20090;-62
2023/03/21 07:54:09;;;;;;;8.55;5.22;;;;;;;-144.57;100.00;62443.72;4750113;30;20060;-61
2023/03/21 07:56:35;;;;;;;9.32;4.72;;;;;;;-144.57;100.00;62443.72;4748604;30;20563;-64
2023/03/21 07:59:01;;;;;;;7.60;5.07;;;;;;;-144.57;100.00;62443.72;4762258;30;20060;-63
2023/03/21 08:01:26;;;;;;;8.85;5.20;;;;;;;-144.57;100.00;62443.72;4762237;30;20159;-63
2023/03/21 08:03:52;;;;;;;8.02;5.13;;;;;;;-144.57;100.00;62443.72;4749141;30;20129;-62
2023/03/21 08:06:21;;;;;;;7.35;5.03;;;;;;;-144.57;100.00;62443.72;4748783;30;20044;-63
2023/03/21 08:08:47;;;;;;;8.10;5.60;;;;;;;-144.57;100.00;62443.72;4749178;30;20060;-60
2023/03/21 08:11:14;;;;;;;7.75;4.70;;;;;;;-144.57;100.00;62443.72;4764225;30;20587;-62
2023/03/21 08:13:40;;;;;;;7.38;4.57;;;;;;;-144.57;100.00;62443.72;4750309;30;20455;-61
2023/03/21 08:16:06;;;;;;;8.18;4.75;;;;;;;-144.57;100.00;62443.72;4763859;30;20102;-63
2023/03/21 08:18:32;;;;;;;6.63;4.55;;;;;;;-144.57;100.00;62443.72;4750005;30;20072;-61
2023/03/21 08:20:58;;;;;;;7.38;4.78;;;;;;;-144.57;100.00;62443.72;4753253;30;20064;-61
2023/03/21 08:23:24;;;;;;;6.63;4.63;;;;;;;-144.57;100.00;62443.72;4748952;30;20052;-62
2023/03/21 08:25:52;;;;;;;6.80;4.88;;;;;;;-144.57;100.00;62443.72;4732746;30;20060;-60
2023/03/21 08:28:17;;;;;;;7.03;4.50;;;;;;;-144.57;100.00;62443.72;4748883;30;20064;-61
2023/03/21 08:30:43;;;;;;;6.35;4.25;;;;;;;-144.57;100.00;62443.72;4762727;30;20056;-62
2023/03/21 08:33:09;;;;;;;6.38;4.60;;;;;;;-144.57;100.00;62443.72;4749539;30;20064;-61
2023/03/21 08:35:34;;;;;;;6.55;4.13;;;;;;;-144.57;100.00;62443.72;4749989;30;20135;-63
2023/03/21 08:38:03;;;;;;;7.38;4.20;;;;;;;-144.57;100.00;62443.72;4748157;30;20130;-62
2023/03/21 08:40:29;;;;;;;6.68;3.97;;;;;;;-144.57;100.00;62443.72;4762903;30;20055;-63
2023/03/21 08:42:55;;;;;;;5.20;3.63;;;;;;;-144.57;100.00;62443.72;4749573;30;20503;-62
2023/03/21 08:45:21;;;;;;;7.55;4.10;;;;;;;-144.57;100.00;62443.72;4748850;30;20093;-63
2023/03/21 08:47:47;;;;;;;6.35;3.53;;;;;;;-144.57;100.00;62443.72;4748886;30;20056;-62
2023/03/21 08:50:19;;;;;;;5.65;4.13;;;;;;;-144.57;100.00;62443.72;4749745;30;20057;-62
2023/03/21 08:52:44;;;;;;;6.95;3.40;;;;;;;-144.57;100.00;62443.72;4748810;30;20052;-62
2023/03/21 08:55:11;;;;;;;6.90;4.20;;;;;;;-144.57;100.00;62443.72;4763556;30;20184;-61
2023/03/21 08:57:38;;;;;;;7.75;4.13;;;;;;;-144.57;100.00;62443.72;4763398;30;20068;-62
2023/03/21 09:00:11;;;;;;;6.10;4.10;;;;;;;-144.57;100.00;62443.72;4749240;30;20060;-62
2023/03/21 09:02:38;;;;;;;6.35;4.13;;;;;;;-144.57;100.00;62443.72;4763553;30;20159;-62
2023/03/21 09:05:04;;;;;;;5.35;3.63;;;;;;;-144.57;100.00;62443.72;4751915;30;20095;-62
2023/03/21 09:07:33;;;;;;;4.97;3.60;;;;;;;-144.57;100.00;62443.72;4739479;30;20153;-62
2023/03/21 09:09:59;;;;;;;5.70;4.20;;;;;;;-144.57;100.00;62443.72;4733708;30;20061;-61
2023/03/21 09:12:25;;;;;;;6.63;4.30;;;;;;;-144.57;100.00;62443.72;4746515;30;20068;-63
2023/03/21 09:14:52;;;;;;;5.32;3.85;;;;;;;-144.57;100.00;62443.72;4746929;30;20071;-62
2023/03/21 09:17:18;;;;;;;7.40;4.35;;;;;;;-144.57;100.00;62443.72;4733913;30;20052;-61
2023/03/21 09:19:46;;;;;;;7.43;4.10;;;;;;;-144.57;100.00;62443.72;4735998;30;20152;-62
2023/03/21 09:22:16;;;;;;;6.35;4.18;;;;;;;-144.57;100.00;62443.72;4734304;30;20132;-60
2023/03/21 09:24:46;;;;;;;5.88;4.35;;;;;;;-144.57;100.00;62443.72;4734597;30;20404;-61
2023/03/21 09:27:24;;;;;;;5.63;4.30;;;;;;;-144.57;100.00;62443.72;4748158;30;20056;-61
2023/03/21 09:30:17;;;;;;;6.32;4.13;;;;;;;-144.57;100.00;62443.72;4749699;30;20065;-60
2023/03/21 09:32:49;;;;;;;7.07;4.88;;;;;;;-144.57;100.00;62443.72;4730815;30;20048;-61
2023/03/21 09:35:17;;;;;;;7.15;5.13;;;;;;;-144.57;100.00;62443.72;4732082;30;20442;-61
2023/03/21 09:37:47;;;;;;;10.77;5.70;;;;;;;-144.57;100.00;62443.72;4732915;30;20539;-58
2023/03/21 09:40:33;;;;;;;8.38;5.47;;;;;;;-144.57;100.00;62443.72;4732263;30;20048;-62
2023/03/21 09:43:03;;;;;;;8.18;5.25;;;;;;;-144.57;100.00;62443.72;4743932;30;20143;-61
2023/03/21 09:45:36;;;;;;;10.10;5.78;;;;;;;-144.57;100.00;62443.72;4733358;30;20048;-62
2023/03/21 09:48:06;;;;;;;8.30;5.70;;;;;;;-144.57;100.00;62443.72;4733069;30;20170;-59
2023/03/21 09:50:37;;;;;;;8.88;5.80;;;;;;;-144.57;100.00;62443.72;4732681;30;20104;-61
2023/03/21 09:53:23;;;;;;;7.68;5.07;;;;;;;-144.57;100.00;62443.72;4733025;30;20064;-62
2023/03/21 09:55:50;;;;;;;8.30;5.70;;;;;;;-144.57;100.00;62443.72;4746611;30;20542;-61
2023/03/21 09:58:29;;;;;;;9.20;6.30;;;;;;;-144.57;100.00;62443.72;4734049;30;20082;-61
2023/03/21 10:01:27;;;;;;;13.90;6.57;;;;;;;-144.57;100.00;62443.72;4733252;30;20061;-62
2023/03/21 10:03:59;;;;;;;10.57;5.93;;;;;;;-144.57;100.00;62443.72;4746208;30;20069;-62
2023/03/21 10:06:29;;;;;;;14.25;5.97;;;;;;;-144.57;100.00;62443.72;4747782;30;20056;-62
2023/03/21 10:09:05;;;;;;;9.63;5.55;;;;;;;-144.57;100.00;62443.72;4733689;30;20088;-63
2023/03/21 10:11:38;;;;;;;8.95;6.18;;;;;;;-144.57;100.00;62443.72;4731995;30;20056;-60
2023/03/21 10:14:19;;;;;;;10.73;6.22;;;;;;;-144.57;100.00;62443.72;4732559;30;20118;-61
2023/03/21 10:16:46;;;;;;;11.82;6.03;;;;;;;-144.57;100.00;62443.72;4746039;30;20144;-62
2023/03/21 10:19:18;;;;;;;11.43;6.30;;;;;;;-144.57;100.00;62443.72;4732238;30;20470;-62
2023/03/21 10:21:49;;;;;;;8.05;6.30;;;;;;;-144.57;100.00;62443.72;4747200;30;20057;-61
2023/03/21 10:24:24;;;;;;;9.82;5.60;;;;;;;-144.57;100.00;62443.72;4732658;30;20052;-61
2023/03/21 10:26:50;;;;;;;10.07;5.72;;;;;;;-144.57;100.00;62443.72;4732747;30;20090;-61
2023/03/21 10:29:17;;;;;;;12.38;6.15;;;;;;;-144.57;100.00;62443.72;4755241;30;20546;-62
2023/03/21 10:31:44;;;;;;;10.63;5.82;;;;;;;-144.57;100.00;62443.72;4746210;30;20106;-62
2023/03/21 10:34:26;;;;;;;9.60;6.10;;;;;;;-144.57;100.00;62443.72;4735388;30;20060;-63
2023/03/21 10:36:52;;;;;;;11.52;6.15;;;;;;;-144.57;100.00;62443.72;4764326;30;20052;-62
2023/03/21 10:39:26;;;;;;;10.63;6.15;;;;;;;-144.57;100.00;62443.72;4764190;30;20430;-61
2023/03/21 10:41:53;;;;;;;9.98;6.10;;;;;;;-144.57;100.00;62443.72;4749203;30;20726;-61
2023/03/21 10:44:19;;;;;;;7.47;4.90;;;;;;;-144.57;100.00;62443.72;4749342;30;20153;-63
2023/03/21 10:46:53;;;;;;;9.32;5.10;;;;;;;-144.57;100.00;62443.72;4750712;30;20056;-61
2023/03/21 10:49:20;;;;;;;5.93;4.03;;;;;;;-144.57;100.00;62443.72;4750272;30;20072;-61
2023/03/21 10:51:49;;;;;;;4.80;3.80;;;;;;;-144.57;100.00;62443.72;4764347;30;20071;-60
2023/03/21 10:54:18;;;;;;;7.53;4.07;;;;;;;-144.57;100.00;62443.72;4763433;30;20199;-62
2023/03/21 10:56:54;;;;;;;6.32;4.10;;;;;;;-144.57;100.00;62443.72;4762921;30;20122;-63
2023/03/21 10:59:21;;;;;;;5.65;3.65;;;;;;;-144.57;100.00;62443.72;4750289;30;20067;-62
2023/03/21 11:01:50;;;;;;;4.70;3.58;;;;;;;-144.57;100.00;62443.72;4749564;30;20625;-61
2023/03/21 11:04:21;;;;;;;5.45;3.72;;;;;;;-144.57;100.00;62443.72;4749359;30;20558;-62
2023/03/21 11:06:53;;;;;;;4.68;3.40;;;;;;;-144.57;100.00;62443.72;4750307;30;20048;-63
2023/03/21 11:09:23;;;;;;;6.32;3.58;;;;;;;-144.57;100.00;62443.72;4763883;30;20150;-62
2023/03/21 11:12:00;;;;;;;4.88;3.50;;;;;;;-144.57;100.00;62443.72;4749989;30;20052;-62
2023/03/21 11:14:37;;;;;;;5.20;3.15;;;;;;;-144.57;100.00;62443.72;4748643;30;20122;-62
2023/03/21 11:17:24;;;;;;;5.70;3.33;;;;;;;-144.57;100.00;62443.72;4749156;30;20571;-63
2023/03/21 11:19:58;;;;;;;4.70;3.50;;;;;;;-144.57;100.00;62443.72;4763820;30;20056;-61
2023/03/21 11:22:29;;;;;;;6.25;3.50;;;;;;;-144.57;100.00;62443.72;4749837;30;20083;-63
2023/03/21 11:25:00;;;;;;;4.38;3.50;;;;;;;-144.57;100.00;62443.72;4764104;30;20069;-61